Morrill, Nebraska
Current Conditions -  °F | °C
As of 3:53 AM on Tuesday 21 Oct 2014 (Local Time) from KTOR Reporting Station
Clear Clear  
Wind Chill: 41°   Ceiling: Unl
Heat Index: 44°   Visibility: 10mi
Dew Point: 36°   Wind: 6mph
Humidity: 73%   Direction: 140°SE
Pressure: 29.95"   Gusts: NA
Location:  41.96°N, 103.93°W
Report Text: KTOR 210953Z AUTO 14005KT 10SM CLR 07/02 A2995 RMK AO2 SLP108 T00670022
Loading
Personal Weather Stations






























Interactive Weather Map
Tropical Storm Tracking
New forecast layout! Learn more

10-Day Weather Forecast

Advertisements
Track Severe Weather on mobile